createdAt,value
2022-10-31T00:00:10.840Z,99.99
2022-10-31T00:01:10.792Z,99.99
2022-10-31T00:02:10.746Z,99.99
2022-10-31T00:03:10.701Z,99.99
2022-10-31T00:04:10.662Z,99.99
2022-10-31T00:05:10.622Z,99.99
2022-10-31T00:06:10.580Z,99.99
2022-10-31T00:07:10.556Z,99.99
2022-10-31T00:08:10.531Z,99.99
2022-10-31T00:09:10.465Z,99.99
2022-10-31T00:10:10.498Z,99.99
2022-10-31T00:11:10.386Z,99.99
2022-10-31T00:12:10.344Z,99.99
2022-10-31T00:13:10.352Z,99.99
2022-10-31T00:14:10.262Z,99.99
2022-10-31T00:15:10.287Z,99.99
2022-10-31T00:16:10.238Z,99.99
2022-10-31T00:17:10.182Z,99.99
2022-10-31T00:18:10.114Z,99.99
2022-10-31T00:19:10.084Z,99.99
2022-10-31T00:20:10.044Z,99.99
2022-10-31T00:21:09.989Z,99.99
2022-10-31T00:22:09.947Z,99.99
2022-10-31T00:23:09.915Z,99.99
2022-10-31T00:24:09.868Z,99.99
2022-10-31T00:25:09.827Z,99.99
2022-10-31T00:26:09.802Z,99.99
2022-10-31T00:27:09.750Z,99.99
2022-10-31T00:28:09.752Z,99.99
2022-10-31T00:29:09.685Z,99.99
2022-10-31T00:30:09.630Z,99.99
2022-10-31T00:31:09.591Z,99.99
2022-10-31T00:32:09.553Z,99.99
2022-10-31T00:33:09.522Z,99.99
2022-10-31T00:34:09.477Z,99.99
2022-10-31T00:35:09.457Z,99.99
2022-10-31T00:36:09.393Z,99.99
2022-10-31T00:37:09.367Z,99.99
2022-10-31T00:38:09.314Z,99.99
2022-10-31T00:39:09.280Z,99.99
2022-10-31T00:40:09.236Z,99.99
2022-10-31T00:41:09.194Z,99.99
2022-10-31T00:42:09.156Z,99.99
2022-10-31T00:43:09.189Z,99.99
2022-10-31T00:44:09.085Z,99.99
2022-10-31T00:45:09.035Z,99.99
2022-10-31T00:46:08.999Z,99.99
2022-10-31T00:47:08.960Z,99.99
2022-10-31T00:48:08.921Z,99.99
2022-10-31T00:49:08.895Z,99.99
2022-10-31T00:50:08.842Z,99.99
2022-10-31T00:51:08.801Z,99.99
2022-10-31T00:52:08.763Z,99.99
2022-10-31T00:53:08.721Z,99.99
2022-10-31T00:54:08.688Z,99.99
2022-10-31T00:55:08.658Z,99.99
2022-10-31T00:56:08.604Z,99.99
2022-10-31T00:57:08.567Z,99.99
2022-10-31T00:58:08.562Z,99.99
2022-10-31T00:59:08.492Z,99.99
2022-10-31T01:00:08.443Z,99.99
2022-10-31T01:01:08.497Z,99.99
2022-10-31T01:02:08.494Z,99.99
2022-10-31T01:03:08.327Z,99.99
2022-10-31T01:04:08.309Z,99.99
2022-10-31T01:05:08.246Z,99.99
2022-10-31T01:06:08.224Z,99.99
2022-10-31T01:07:08.170Z,99.99
2022-10-31T01:08:08.127Z,99.99
2022-10-31T01:09:08.087Z,99.99
2022-10-31T01:10:08.076Z,99.99
2022-10-31T01:11:08.023Z,99.99
2022-10-31T01:12:07.984Z,99.99
2022-10-31T01:13:07.930Z,99.99
2022-10-31T01:14:07.890Z,99.99
2022-10-31T01:15:07.849Z,99.99
2022-10-31T01:16:07.819Z,99.99
2022-10-31T01:17:07.791Z,99.99
2022-10-31T01:18:07.750Z,99.99
2022-10-31T01:19:07.694Z,99.99
2022-10-31T01:20:07.656Z,99.99
2022-10-31T01:21:07.622Z,99.99
2022-10-31T01:22:07.577Z,99.99
2022-10-31T01:23:07.534Z,99.99
2022-10-31T01:24:07.522Z,99.99
2022-10-31T01:25:07.465Z,99.99
2022-10-31T01:26:07.420Z,99.99
2022-10-31T01:27:07.381Z,99.99
2022-10-31T01:28:07.342Z,99.99
2022-10-31T01:29:07.316Z,99.99
2022-10-31T01:30:07.265Z,99.99
2022-10-31T01:31:07.218Z,99.99
2022-10-31T01:32:07.217Z,99.99
2022-10-31T01:33:07.143Z,99.99
2022-10-31T01:34:07.117Z,99.99
2022-10-31T01:35:07.066Z,99.99
2022-10-31T01:36:07.032Z,99.99
2022-10-31T01:37:06.987Z,99.99
2022-10-31T01:38:06.949Z,99.99
2022-10-31T01:39:06.919Z,99.99
2022-10-31T01:40:06.864Z,99.99
2022-10-31T01:41:06.827Z,99.99
2022-10-31T01:42:06.801Z,99.99
2022-10-31T01:43:06.749Z,99.99
2022-10-31T01:44:06.723Z,99.99
2022-10-31T01:45:06.666Z,99.99
2022-10-31T01:46:06.673Z,99.99
2022-10-31T01:47:06.591Z,99.99
2022-10-31T01:48:06.553Z,99.99
2022-10-31T01:49:06.529Z,99.99
2022-10-31T01:50:06.470Z,99.99
2022-10-31T01:51:06.431Z,99.99
2022-10-31T01:52:06.393Z,99.99
2022-10-31T01:53:06.356Z,99.99
2022-10-31T01:54:06.313Z,99.99
2022-10-31T01:55:06.288Z,99.99
2022-10-31T01:56:06.231Z,99.99
2022-10-31T01:57:06.193Z,99.99
2022-10-31T01:58:06.205Z,99.99
2022-10-31T01:59:06.117Z,99.99
2022-10-31T02:00:06.078Z,99.99
2022-10-31T02:01:08.048Z,99.99
2022-10-31T02:02:06.110Z,99.99
2022-10-31T02:03:05.958Z,99.99
2022-10-31T02:04:05.920Z,99.99
2022-10-31T02:05:05.875Z,99.99
2022-10-31T02:06:05.838Z,99.99
2022-10-31T02:07:05.819Z,99.99
2022-10-31T02:08:05.769Z,99.99
2022-10-31T02:09:05.724Z,99.99
2022-10-31T02:10:05.685Z,99.99
2022-10-31T02:11:05.662Z,99.99
2022-10-31T02:12:05.598Z,99.99
2022-10-31T02:13:05.576Z,99.99
2022-10-31T02:14:05.528Z,99.99
2022-10-31T02:15:05.497Z,99.99
2022-10-31T02:16:05.509Z,99.99
2022-10-31T02:17:05.407Z,99.99
2022-10-31T02:18:05.386Z,99.99
2022-10-31T02:19:05.317Z,99.99
2022-10-31T02:20:05.286Z,99.99
2022-10-31T02:21:05.245Z,99.99
2022-10-31T02:22:05.198Z,99.99
2022-10-31T02:23:05.168Z,99.99
2022-10-31T02:24:05.119Z,99.99
2022-10-31T02:25:05.081Z,99.99
2022-10-31T02:26:05.055Z,99.99
2022-10-31T02:27:04.997Z,99.99
2022-10-31T02:28:05.238Z,99.99
2022-10-31T02:29:04.917Z,99.99
2022-10-31T02:30:04.885Z,99.99
2022-10-31T02:31:04.837Z,99.99
2022-10-31T02:32:04.799Z,99.99
2022-10-31T02:33:04.776Z,99.99
2022-10-31T02:34:04.741Z,99.99
2022-10-31T02:35:04.681Z,99.99
2022-10-31T02:36:04.681Z,99.99
2022-10-31T02:37:04.602Z,99.99
2022-10-31T02:38:04.567Z,99.99
2022-10-31T02:39:04.534Z,99.99
2022-10-31T02:40:04.479Z,99.99
2022-10-31T02:41:04.439Z,99.99
2022-10-31T02:42:04.402Z,99.99
2022-10-31T02:43:04.728Z,99.99
2022-10-31T02:44:04.329Z,99.99
2022-10-31T02:45:04.295Z,99.99
2022-10-31T02:46:04.240Z,99.99
2022-10-31T02:47:04.202Z,99.99
2022-10-31T02:48:04.162Z,99.99
2022-10-31T02:49:04.123Z,99.99
2022-10-31T02:50:04.105Z,99.99
2022-10-31T02:51:04.042Z,99.99
2022-10-31T02:52:04.001Z,99.99
2022-10-31T02:53:03.964Z,99.99
2022-10-31T02:54:03.921Z,99.99
2022-10-31T02:55:03.882Z,99.99
2022-10-31T02:56:03.861Z,99.99
2022-10-31T02:57:03.817Z,99.99
2022-10-31T02:58:04.141Z,99.99
2022-10-31T02:59:03.728Z,99.99
2022-10-31T03:00:03.683Z,99.99
2022-10-31T03:01:03.772Z,99.99
2022-10-31T03:02:03.837Z,99.99
2022-10-31T03:03:03.747Z,99.99
2022-10-31T03:04:03.522Z,99.99
2022-10-31T03:05:03.481Z,99.99
2022-10-31T03:06:03.445Z,99.99
2022-10-31T03:07:03.400Z,99.99
2022-10-31T03:08:03.364Z,99.99
2022-10-31T03:09:03.356Z,99.99
2022-10-31T03:10:12.798Z,99.99
2022-10-31T03:11:03.243Z,99.99
2022-10-31T03:12:03.216Z,99.99
2022-10-31T03:13:03.337Z,99.99
2022-10-31T03:14:03.127Z,99.99
2022-10-31T03:15:03.098Z,99.99
2022-10-31T03:16:03.047Z,99.99
2022-10-31T03:17:03.006Z,99.99
2022-10-31T03:18:03.497Z,99.99
2022-10-31T03:19:02.924Z,99.99
2022-10-31T03:20:02.889Z,99.99
2022-10-31T03:21:02.860Z,99.99
2022-10-31T03:22:02.809Z,99.99
2022-10-31T03:23:02.769Z,99.99
2022-10-31T03:24:02.730Z,99.99
2022-10-31T03:25:02.689Z,99.99
2022-10-31T03:26:02.650Z,99.99
2022-10-31T03:27:02.641Z,99.99
2022-10-31T03:28:03.040Z,99.99
2022-10-31T03:29:02.530Z,99.99
2022-10-31T03:30:02.495Z,99.99
2022-10-31T03:31:04.847Z,99.99
2022-10-31T03:32:02.412Z,99.99
2022-10-31T03:33:02.573Z,99.99
2022-10-31T03:34:02.340Z,99.99
2022-10-31T03:35:02.293Z,99.99
2022-10-31T03:36:02.254Z,99.99
2022-10-31T03:37:02.209Z,99.99
2022-10-31T03:38:06.868Z,99.99
2022-10-31T03:39:02.147Z,99.99
2022-10-31T03:40:02.096Z,99.99
2022-10-31T03:41:02.058Z,99.99
2022-10-31T03:42:02.018Z,99.99
2022-10-31T03:43:02.365Z,99.99
2022-10-31T03:44:01.953Z,99.99
2022-10-31T03:45:01.923Z,99.99
2022-10-31T03:46:01.870Z,99.99
2022-10-31T03:47:01.823Z,99.99
2022-10-31T03:48:02.224Z,99.99
2022-10-31T03:49:01.739Z,99.99
2022-10-31T03:50:01.711Z,99.99
2022-10-31T03:51:01.675Z,99.99
2022-10-31T03:52:01.630Z,99.99
2022-10-31T03:53:01.585Z,99.99
2022-10-31T03:54:01.542Z,99.99
2022-10-31T03:55:01.500Z,99.99
2022-10-31T03:56:01.476Z,99.99
2022-10-31T03:57:01.427Z,99.99
2022-10-31T03:58:01.896Z,99.99
2022-10-31T03:59:01.342Z,99.99
2022-10-31T04:00:01.301Z,99.99
2022-10-31T04:01:01.332Z,99.99
2022-10-31T04:02:01.385Z,99.99
2022-10-31T04:03:01.447Z,99.99
2022-10-31T04:04:01.146Z,99.99
2022-10-31T04:05:01.104Z,99.99
2022-10-31T04:06:01.084Z,99.99
2022-10-31T04:07:01.038Z,99.99
2022-10-31T04:08:00.985Z,99.99
2022-10-31T04:09:00.945Z,99.99
2022-10-31T04:10:00.907Z,99.99
2022-10-31T04:11:00.863Z,99.99
2022-10-31T04:12:00.831Z,99.99
2022-10-31T04:13:01.302Z,99.99
2022-10-31T04:14:00.753Z,99.99
2022-10-31T04:15:00.710Z,99.99
2022-10-31T04:16:00.664Z,99.99
2022-10-31T04:17:00.630Z,99.99
2022-10-31T04:18:00.993Z,99.99
2022-10-31T04:19:00.554Z,99.99
2022-10-31T04:20:00.509Z,99.99
2022-10-31T04:21:00.465Z,99.99
2022-10-31T04:22:00.428Z,99.99
2022-10-31T04:23:00.395Z,99.99
2022-10-31T04:24:00.349Z,99.99
2022-10-31T04:25:00.306Z,99.99
2022-10-31T04:26:00.266Z,99.99
2022-10-31T04:27:00.229Z,99.99
2022-10-31T04:28:00.633Z,99.99
2022-10-31T04:29:00.161Z,99.99
2022-10-31T04:30:00.112Z,99.99
2022-10-31T04:31:00.068Z,99.99
2022-10-31T04:32:00.028Z,99.99
2022-10-31T04:33:00.191Z,99.99
2022-10-31T04:33:59.961Z,99.99
2022-10-31T04:34:59.920Z,99.99
2022-10-31T04:35:59.866Z,99.99
2022-10-31T04:36:59.825Z,99.99
2022-10-31T04:37:59.789Z,99.99
2022-10-31T04:38:59.746Z,99.99
2022-10-31T04:39:59.718Z,99.99
2022-10-31T04:40:59.674Z,99.99
2022-10-31T04:41:59.629Z,99.99
2022-10-31T04:42:59.902Z,99.99
2022-10-31T04:43:59.546Z,99.99
2022-10-31T04:44:59.506Z,99.99
2022-10-31T04:45:59.485Z,99.99
2022-10-31T04:46:59.426Z,99.99
2022-10-31T04:47:59.709Z,99.99
2022-10-31T04:48:59.346Z,99.99
2022-10-31T04:49:59.309Z,99.99
2022-10-31T04:50:59.264Z,99.99
2022-10-31T04:51:59.234Z,99.99
2022-10-31T04:52:59.185Z,99.99
2022-10-31T04:53:59.148Z,99.99
2022-10-31T04:54:59.105Z,99.99
2022-10-31T04:55:59.065Z,99.99
2022-10-31T04:56:59.063Z,99.99
2022-10-31T04:57:59.403Z,99.99
2022-10-31T04:58:58.945Z,99.99
2022-10-31T04:59:58.914Z,99.99
2022-10-31T05:00:58.910Z,99.99
2022-10-31T05:01:58.963Z,99.99
2022-10-31T05:02:59.169Z,99.99
2022-10-31T05:03:58.746Z,99.99
2022-10-31T05:04:58.705Z,99.99
2022-10-31T05:05:58.667Z,99.99
2022-10-31T05:06:58.640Z,99.99
2022-10-31T05:07:58.593Z,99.99
2022-10-31T05:08:58.547Z,99.99
2022-10-31T05:09:58.508Z,99.99
2022-10-31T05:11:03.232Z,99.99
2022-10-31T05:11:58.432Z,99.99
2022-10-31T05:12:58.877Z,99.99
2022-10-31T05:13:58.350Z,99.99
2022-10-31T05:14:58.304Z,99.99
2022-10-31T05:15:58.273Z,99.99
2022-10-31T05:16:58.228Z,99.99
2022-10-31T05:17:58.775Z,99.99
2022-10-31T05:18:58.154Z,99.99
2022-10-31T05:19:58.106Z,99.99
2022-10-31T05:20:58.063Z,99.99
2022-10-31T05:21:58.025Z,99.99
2022-10-31T05:22:57.985Z,99.99
2022-10-31T05:23:57.945Z,99.99
2022-10-31T05:24:57.913Z,99.99
2022-10-31T05:25:57.864Z,99.99
2022-10-31T05:26:57.824Z,99.99
2022-10-31T05:27:58.100Z,99.99
2022-10-31T05:28:57.743Z,99.99
2022-10-31T05:29:57.706Z,99.99
2022-10-31T05:30:57.685Z,99.99
2022-10-31T05:31:57.623Z,99.99
2022-10-31T05:32:57.830Z,99.99
2022-10-31T05:33:57.549Z,99.99
2022-10-31T05:34:57.502Z,99.99
2022-10-31T05:35:57.461Z,99.99
2022-10-31T05:36:57.436Z,99.99
2022-10-31T05:37:57.383Z,99.99
2022-10-31T05:38:57.340Z,99.99
2022-10-31T05:39:57.305Z,99.99
2022-10-31T05:40:57.262Z,99.99
2022-10-31T05:41:57.227Z,99.99
2022-10-31T05:42:57.448Z,99.99
2022-10-31T05:43:57.142Z,99.99
2022-10-31T05:44:57.099Z,99.99
2022-10-31T05:45:57.062Z,99.99
2022-10-31T05:46:57.021Z,99.99
2022-10-31T05:47:57.348Z,99.99
2022-10-31T05:49:00.197Z,99.99
2022-10-31T05:49:56.913Z,99.99
2022-10-31T05:50:56.879Z,99.99
2022-10-31T05:51:56.834Z,99.99
2022-10-31T05:52:56.792Z,99.99
2022-10-31T05:53:56.741Z,99.99
2022-10-31T05:54:56.710Z,99.99
2022-10-31T05:55:56.663Z,99.99
2022-10-31T05:56:56.620Z,99.99
2022-10-31T05:57:56.687Z,99.99
2022-10-31T05:58:56.543Z,99.99
2022-10-31T05:59:56.502Z,99.99
2022-10-31T06:00:56.470Z,99.99
2022-10-31T06:01:56.508Z,99.99
2022-10-31T06:02:56.465Z,99.99
2022-10-31T06:03:56.339Z,99.99
2022-10-31T06:04:56.371Z,99.99
2022-10-31T06:05:56.257Z,99.99
2022-10-31T06:06:56.229Z,99.99
2022-10-31T06:07:56.179Z,99.99
2022-10-31T06:08:56.137Z,99.99
2022-10-31T06:09:56.097Z,99.99
2022-10-31T06:10:56.057Z,99.99
2022-10-31T06:11:56.032Z,99.99
2022-10-31T06:12:55.990Z,99.99
2022-10-31T06:13:55.941Z,99.99
2022-10-31T06:14:55.896Z,99.99
2022-10-31T06:15:55.859Z,99.99
2022-10-31T06:16:55.817Z,99.99
2022-10-31T06:17:55.790Z,99.99
2022-10-31T06:18:55.748Z,99.99
2022-10-31T06:19:55.702Z,99.99
2022-10-31T06:20:55.657Z,99.99
2022-10-31T06:21:55.622Z,99.99
2022-10-31T06:22:55.575Z,99.99
2022-10-31T06:23:55.538Z,99.99
2022-10-31T06:24:55.508Z,99.99
2022-10-31T06:25:55.457Z,99.99
2022-10-31T06:26:55.417Z,99.99
2022-10-31T06:27:55.371Z,99.99
2022-10-31T06:28:57.725Z,99.99
2022-10-31T06:29:55.307Z,99.99
2022-10-31T06:30:55.261Z,99.99
2022-10-31T06:31:55.217Z,99.99
2022-10-31T06:32:55.175Z,99.99
2022-10-31T06:33:55.135Z,99.99
2022-10-31T06:34:55.094Z,99.99
2022-10-31T06:35:55.070Z,99.99
2022-10-31T06:36:55.016Z,99.99
2022-10-31T06:37:54.980Z,99.99
2022-10-31T06:38:54.950Z,99.99
2022-10-31T06:39:54.895Z,99.99
2022-10-31T06:40:54.854Z,99.99
2022-10-31T06:41:54.831Z,99.99
2022-10-31T06:42:54.773Z,99.99
2022-10-31T06:43:54.733Z,99.99
2022-10-31T06:44:54.695Z,99.99
2022-10-31T06:45:54.651Z,99.99
2022-10-31T06:46:54.611Z,99.99
2022-10-31T06:48:16.024Z,99.99
2022-10-31T06:48:54.533Z,99.99
2022-10-31T06:49:54.495Z,99.99
2022-10-31T06:50:59.384Z,99.99
2022-10-31T06:51:54.413Z,99.99
2022-10-31T06:52:54.384Z,99.99
2022-10-31T06:53:54.336Z,99.99
2022-10-31T06:54:54.292Z,99.99
2022-10-31T06:55:54.253Z,99.99
2022-10-31T06:56:54.211Z,99.99
2022-10-31T06:57:57.611Z,99.99
2022-10-31T06:58:54.132Z,99.99
2022-10-31T06:59:54.091Z,99.99
2022-10-31T07:00:54.121Z,99.99
2022-10-31T07:01:54.152Z,99.99
2022-10-31T07:02:53.982Z,99.99
2022-10-31T07:03:53.932Z,99.99
2022-10-31T07:04:53.893Z,99.99
2022-10-31T07:05:53.855Z,99.99
2022-10-31T07:06:53.817Z,99.99
2022-10-31T07:07:53.785Z,99.99
2022-10-31T07:08:53.735Z,99.99
2022-10-31T07:09:53.696Z,99.99
2022-10-31T07:10:53.654Z,99.99
2022-10-31T07:11:53.612Z,99.99
2022-10-31T07:12:53.575Z,99.99
2022-10-31T07:13:53.542Z,99.99
2022-10-31T07:14:53.498Z,99.99
2022-10-31T07:15:53.455Z,99.99
2022-10-31T07:16:53.414Z,99.99
2022-10-31T07:17:53.375Z,99.99
2022-10-31T07:18:53.350Z,99.99
2022-10-31T07:19:53.295Z,99.99
2022-10-31T07:20:53.256Z,99.99
2022-10-31T07:21:53.215Z,99.99
2022-10-31T07:22:53.193Z,99.99
2022-10-31T07:23:53.137Z,99.99
2022-10-31T07:24:53.112Z,99.99
2022-10-31T07:25:53.058Z,99.99
2022-10-31T07:26:53.077Z,99.99
2022-10-31T07:27:52.978Z,99.99
2022-10-31T07:28:52.940Z,99.99
2022-10-31T07:29:52.898Z,99.99
2022-10-31T07:30:52.874Z,99.99
2022-10-31T07:31:52.820Z,99.99
2022-10-31T07:32:52.792Z,99.99
2022-10-31T07:33:52.741Z,99.99
2022-10-31T07:34:52.702Z,99.99
2022-10-31T07:35:52.671Z,99.99
2022-10-31T07:36:52.653Z,99.99
2022-10-31T07:37:52.582Z,99.99
2022-10-31T07:38:52.546Z,99.99
2022-10-31T07:39:52.504Z,99.99
2022-10-31T07:40:52.466Z,99.99
2022-10-31T07:41:52.423Z,99.99
2022-10-31T07:42:52.397Z,99.99
2022-10-31T07:44:55.233Z,99.99
2022-10-31T07:45:52.267Z,99.99
2022-10-31T07:46:52.232Z,99.99
2022-10-31T07:47:52.188Z,99.99
2022-10-31T07:48:52.165Z,99.99
2022-10-31T07:49:52.111Z,99.99
2022-10-31T07:50:52.072Z,99.99
2022-10-31T07:51:52.032Z,99.99
2022-10-31T07:52:51.992Z,99.99
2022-10-31T07:53:51.954Z,99.99
2022-10-31T07:54:51.945Z,99.99
2022-10-31T07:55:51.873Z,99.99
2022-10-31T07:56:51.837Z,99.99
2022-10-31T07:57:51.797Z,99.99
2022-10-31T07:58:51.754Z,99.99
2022-10-31T07:59:51.718Z,99.99
2022-10-31T08:00:51.898Z,99.99
2022-10-31T08:01:51.646Z,99.99
2022-10-31T08:02:51.601Z,99.99
2022-10-31T08:03:51.560Z,99.99
2022-10-31T08:04:51.531Z,99.99
2022-10-31T08:05:51.483Z,99.99
2022-10-31T08:06:51.456Z,99.99
2022-10-31T08:07:51.405Z,99.99
2022-10-31T08:08:51.410Z,99.99
2022-10-31T08:09:51.355Z,99.99
2022-10-31T08:10:51.337Z,99.99
2022-10-31T08:11:51.340Z,99.99
2022-10-31T08:12:51.222Z,99.99
2022-10-31T08:13:51.175Z,99.99
2022-10-31T08:14:51.829Z,99.99
2022-10-31T08:15:51.103Z,99.99
2022-10-31T08:16:51.060Z,99.99
2022-10-31T08:17:51.039Z,99.85
2022-10-31T08:18:50.983Z,99.60
2022-10-31T08:19:50.955Z,99.99
2022-10-31T08:20:50.907Z,98.74
2022-10-31T08:21:50.868Z,98.85
2022-10-31T08:22:50.834Z,98.85
2022-10-31T08:23:50.793Z,98.09
2022-10-31T08:24:50.770Z,96.42
2022-10-31T08:25:50.732Z,96.53
2022-10-31T08:26:50.677Z,96.22
2022-10-31T08:27:50.641Z,95.27
2022-10-31T08:28:50.606Z,94.56
2022-10-31T08:29:50.566Z,95.53
2022-10-31T08:30:50.544Z,95.02
2022-10-31T08:31:50.491Z,94.31
2022-10-31T08:32:50.456Z,93.76
2022-10-31T08:33:50.421Z,92.61
2022-10-31T08:34:50.382Z,92.26
2022-10-31T08:35:50.345Z,90.61
2022-10-31T08:36:50.331Z,89.19
2022-10-31T08:37:50.276Z,89.25
2022-10-31T08:38:50.248Z,88.24
2022-10-31T08:39:50.199Z,89.19
2022-10-31T08:40:50.161Z,89.35
2022-10-31T08:41:50.124Z,89.15
2022-10-31T08:42:50.088Z,88.04
2022-10-31T08:43:50.055Z,88.81
2022-10-31T08:44:50.043Z,88.46
2022-10-31T08:45:50.002Z,87.05
2022-10-31T08:46:49.947Z,85.00
2022-10-31T08:47:49.908Z,85.34
2022-10-31T08:48:49.876Z,85.03
2022-10-31T08:49:49.851Z,85.74
2022-10-31T08:50:49.799Z,86.89
2022-10-31T08:51:49.764Z,86.38
2022-10-31T08:53:04.808Z,86.69
2022-10-31T08:53:49.696Z,86.15
2022-10-31T08:54:49.657Z,85.90
2022-10-31T08:55:49.640Z,84.59
2022-10-31T08:56:49.586Z,85.30
2022-10-31T08:57:49.551Z,84.89
2022-10-31T08:58:49.518Z,85.10
2022-10-31T08:59:49.479Z,86.21
2022-10-31T09:00:49.481Z,85.74
2022-10-31T09:01:49.519Z,84.83
2022-10-31T09:02:49.376Z,85.80
2022-10-31T09:03:49.345Z,84.74
2022-10-31T09:04:49.301Z,84.89
2022-10-31T09:05:49.338Z,85.14
2022-10-31T09:07:49.208Z,86.75
2022-10-31T09:08:49.177Z,85.17
2022-10-31T09:09:49.127Z,86.22
2022-10-31T09:10:56.145Z,87.03
2022-10-31T09:11:49.053Z,87.23
2022-10-31T09:12:49.018Z,87.84
2022-10-31T09:13:48.986Z,87.63
2022-10-31T09:14:48.974Z,88.04
2022-10-31T09:15:48.911Z,88.45
2022-10-31T09:16:48.875Z,89.39
2022-10-31T09:17:48.834Z,89.50
2022-10-31T09:18:48.814Z,88.39
2022-10-31T09:19:48.769Z,88.08
2022-10-31T09:20:48.732Z,88.68
2022-10-31T09:21:48.880Z,89.09
2022-10-31T09:22:48.659Z,89.29
2022-10-31T09:23:48.632Z,89.70
2022-10-31T09:24:48.601Z,88.89
2022-10-31T09:25:50.675Z,89.90
2022-10-31T09:26:48.517Z,88.83
2022-10-31T09:27:48.479Z,89.64
2022-10-31T09:28:48.455Z,90.24
2022-10-31T09:29:48.409Z,89.94
2022-10-31T09:30:48.371Z,89.68
2022-10-31T09:31:48.340Z,90.04
2022-10-31T09:32:48.300Z,89.34
2022-10-31T09:33:48.263Z,89.29
2022-10-31T09:34:48.238Z,89.50
2022-10-31T09:35:48.194Z,88.79
2022-10-31T09:36:48.157Z,88.79
2022-10-31T09:37:48.119Z,89.29
2022-10-31T09:38:48.090Z,89.90
2022-10-31T09:39:48.044Z,91.05
2022-10-31T09:40:48.010Z,89.19
2022-10-31T09:41:50.769Z,89.09
2022-10-31T09:42:47.937Z,88.75
2022-10-31T09:43:47.899Z,87.34
2022-10-31T09:44:47.875Z,88.04
2022-10-31T09:45:47.846Z,87.70
2022-10-31T09:46:47.791Z,89.25
2022-10-31T09:47:47.752Z,88.54
2022-10-31T09:48:47.727Z,88.10
2022-10-31T09:49:47.764Z,87.19
2022-10-31T09:50:47.658Z,86.89
2022-10-31T09:51:52.697Z,87.40
2022-10-31T09:52:47.575Z,87.35
2022-10-31T09:53:47.537Z,86.04
2022-10-31T09:54:47.503Z,86.10
2022-10-31T09:55:47.466Z,86.00
2022-10-31T09:56:47.438Z,85.05
2022-10-31T09:57:47.396Z,84.55
2022-10-31T09:58:47.360Z,83.61
2022-10-31T09:59:47.320Z,83.87
2022-10-31T10:00:47.349Z,84.51
2022-10-31T10:01:47.300Z,83.37
2022-10-31T10:02:47.219Z,83.57
2022-10-31T10:03:47.177Z,82.22
2022-10-31T10:04:47.144Z,81.07
2022-10-31T10:05:47.108Z,81.38
2022-10-31T10:06:47.074Z,81.18
2022-10-31T10:07:47.053Z,81.98
2022-10-31T10:08:47.002Z,81.44
2022-10-31T10:09:46.965Z,80.63
2022-10-31T10:10:46.930Z,80.74
2022-10-31T10:11:46.905Z,79.93
2022-10-31T10:12:46.860Z,81.14
2022-10-31T10:13:46.823Z,80.57
2022-10-31T10:14:46.792Z,82.58
2022-10-31T10:15:46.753Z,81.14
2022-10-31T10:16:46.718Z,80.80
2022-10-31T10:17:46.694Z,79.93
2022-10-31T10:18:46.653Z,82.28
2022-10-31T10:19:46.613Z,81.82
2022-10-31T10:20:46.579Z,83.12
2022-10-31T10:21:46.549Z,82.82
2022-10-31T10:22:46.508Z,81.52
2022-10-31T10:23:46.486Z,82.58
2022-10-31T10:24:46.440Z,81.78
2022-10-31T10:25:46.410Z,81.84
2022-10-31T10:26:46.370Z,81.07
2022-10-31T10:27:46.336Z,82.28
2022-10-31T10:28:46.350Z,81.07
2022-10-31T10:29:46.292Z,81.62
2022-10-31T10:30:46.233Z,82.02
2022-10-31T10:31:46.194Z,81.98
2022-10-31T10:32:50.908Z,82.12
2022-10-31T10:33:46.322Z,82.68
2022-10-31T10:34:46.109Z,81.82
2022-10-31T10:35:46.054Z,82.28
2022-10-31T10:36:46.022Z,83.06
2022-10-31T10:37:45.985Z,83.87
2022-10-31T10:38:46.258Z,83.06
2022-10-31T10:39:45.919Z,83.97
2022-10-31T10:40:45.892Z,84.88
2022-10-31T10:41:45.850Z,84.77
2022-10-31T10:42:45.811Z,83.87
2022-10-31T10:44:45.742Z,84.61
2022-10-31T10:45:45.715Z,84.75
2022-10-31T10:46:45.671Z,86.10
2022-10-31T10:47:45.639Z,86.00
2022-10-31T10:48:45.598Z,86.41
2022-10-31T10:49:45.567Z,86.91
2022-10-31T10:50:45.527Z,87.11
2022-10-31T10:52:49.458Z,87.17
2022-10-31T10:53:45.422Z,87.77
2022-10-31T10:54:45.384Z,87.07
2022-10-31T10:55:45.348Z,88.07
2022-10-31T10:56:45.325Z,87.17
2022-10-31T10:57:45.278Z,86.12
2022-10-31T10:58:45.240Z,85.52
2022-10-31T10:59:45.235Z,84.97
2022-10-31T11:00:45.197Z,85.52
2022-10-31T11:01:45.134Z,85.08
2022-10-31T11:02:48.049Z,84.88
2022-10-31T11:03:45.073Z,84.83
2022-10-31T11:04:45.024Z,83.73
2022-10-31T11:05:44.992Z,84.13
2022-10-31T11:06:44.952Z,84.43
2022-10-31T11:07:44.918Z,84.49
2022-10-31T11:08:44.882Z,84.29
2022-10-31T11:09:44.859Z,83.69
2022-10-31T11:10:44.810Z,82.89
2022-10-31T11:11:44.781Z,82.84
2022-10-31T11:12:44.742Z,83.65
2022-10-31T11:13:44.704Z,82.45
2022-10-31T11:14:44.682Z,82.51
2022-10-31T11:15:44.643Z,82.40
2022-10-31T11:16:44.600Z,81.90
2022-10-31T11:17:44.562Z,80.70
2022-10-31T11:18:44.524Z,81.30
2022-10-31T11:19:44.502Z,81.40
2022-10-31T11:20:44.467Z,81.56
2022-10-31T11:21:45.848Z,81.16
2022-10-31T11:22:44.384Z,81.50
2022-10-31T11:23:44.348Z,81.14
2022-10-31T11:24:44.316Z,80.80
2022-10-31T11:25:44.279Z,82.20
2022-10-31T11:26:44.252Z,82.17
2022-10-31T11:27:44.216Z,81.36
2022-10-31T11:28:44.171Z,81.12
2022-10-31T11:29:44.137Z,80.12
2022-10-31T11:30:44.127Z,80.06
2022-10-31T11:31:44.073Z,79.72
2022-10-31T11:32:44.045Z,80.42
2022-10-31T11:33:43.996Z,79.18
2022-10-31T11:34:43.960Z,78.52
2022-10-31T11:35:43.940Z,79.52
2022-10-31T11:36:43.890Z,80.22
2022-10-31T11:37:43.860Z,79.02
2022-10-31T11:38:43.831Z,79.08
2022-10-31T11:39:43.785Z,79.18
2022-10-31T11:40:43.750Z,78.78
2022-10-31T11:41:43.713Z,77.98
2022-10-31T11:42:43.682Z,76.67
2022-10-31T11:43:43.648Z,78.18
2022-10-31T11:44:43.632Z,78.38
2022-10-31T11:45:43.578Z,78.31
2022-10-31T11:46:43.539Z,78.72
2022-10-31T11:47:43.505Z,79.12
2022-10-31T11:48:43.474Z,78.81
2022-10-31T11:49:43.441Z,78.81
2022-10-31T11:50:43.412Z,78.92
2022-10-31T11:51:43.365Z,79.55
2022-10-31T11:52:43.383Z,78.61
2022-10-31T11:53:43.314Z,78.81
2022-10-31T11:54:43.282Z,79.32
2022-10-31T11:55:43.226Z,78.81
2022-10-31T11:56:43.192Z,78.96
2022-10-31T11:57:43.153Z,78.85
2022-10-31T11:58:43.127Z,79.92
2022-10-31T11:59:43.087Z,80.22
2022-10-31T12:00:43.045Z,79.62
2022-10-31T12:01:45.139Z,79.12
2022-10-31T12:02:43.053Z,78.02
2022-10-31T12:03:42.942Z,77.48
2022-10-31T12:04:42.918Z,76.37
2022-10-31T12:05:42.872Z,75.51
2022-10-31T12:06:42.838Z,75.67
2022-10-31T12:07:42.815Z,74.87
2022-10-31T12:08:42.767Z,74.57
2022-10-31T12:09:42.734Z,75.87
2022-10-31T12:10:42.708Z,75.07
2022-10-31T12:11:42.661Z,74.27
2022-10-31T12:12:42.625Z,75.31
2022-10-31T12:13:42.593Z,75.31
2022-10-31T12:14:42.553Z,75.01
2022-10-31T12:15:42.536Z,75.10
2022-10-31T12:16:42.500Z,74.10
2022-10-31T12:17:42.451Z,73.47
2022-10-31T12:18:42.413Z,74.27
2022-10-31T12:19:42.381Z,74.27
2022-10-31T12:20:42.343Z,73.77
2022-10-31T12:21:42.326Z,73.30
2022-10-31T12:22:42.271Z,72.97
2022-10-31T12:23:42.240Z,73.57
2022-10-31T12:24:42.209Z,72.63
2022-10-31T12:25:42.175Z,73.23
2022-10-31T12:26:42.132Z,72.73
2022-10-31T12:27:42.115Z,72.33
2022-10-31T12:28:45.402Z,71.73
2022-10-31T12:29:42.038Z,72.33
2022-10-31T12:30:41.992Z,72.53
2022-10-31T12:31:41.955Z,72.43
2022-10-31T12:32:41.932Z,71.53
2022-10-31T12:33:41.885Z,71.86
2022-10-31T12:34:47.814Z,73.07
2022-10-31T12:35:41.825Z,72.66
2022-10-31T12:36:41.780Z,73.67
2022-10-31T12:37:41.758Z,72.27
2022-10-31T12:38:41.710Z,73.07
2022-10-31T12:39:41.674Z,73.36
2022-10-31T12:40:41.640Z,73.16
2022-10-31T12:41:41.604Z,72.27
2022-10-31T12:42:41.573Z,73.73
2022-10-31T12:43:41.545Z,72.43
2022-10-31T12:44:41.495Z,72.36
2022-10-31T12:45:41.462Z,72.77
2022-10-31T12:46:41.425Z,72.27
2022-10-31T12:47:41.390Z,72.77
2022-10-31T12:48:41.356Z,72.16
2022-10-31T12:49:41.336Z,72.86
2022-10-31T12:50:41.283Z,72.86
2022-10-31T12:51:41.252Z,73.80
2022-10-31T12:52:41.216Z,73.30
2022-10-31T12:53:41.181Z,73.80
2022-10-31T12:54:44.071Z,73.20
2022-10-31T12:55:41.118Z,72.90